This is the latest recevied weather packets stored in our database for station/object IW2DGQ-3. If no packets are shown the sender has not sent any weather packets the latest 10 day(s).
| Time | Temp. | Humidity | Pressure | Rain* | Wind** | Luminosity | Snow |
|---|---|---|---|---|---|---|---|
| 1777425937 | 13.89° C | 64% | 1016.4 hPa | - | - | - | - |
| 1777424734 | 13.89° C | 63% | 1016.4 hPa | - | - | - | - |
| 1777423530 | 14.44° C | 62% | 1016.3 hPa | - | - | - | - |
| 1777422327 | 14.44° C | 62% | 1016.3 hPa | - | - | - | - |
| 1777421123 | 14.44° C | 61% | 1016.2 hPa | - | - | - | - |
| 1777419920 | 15° C | 60% | 1016.2 hPa | - | - | - | - |
| 1777417513 | 15.56° C | 58% | 1016.2 hPa | - | - | - | - |
| 1777416310 | 15.56° C | 57% | 1016.3 hPa | - | - | - | - |
| 1777415106 | 15.56° C | 56% | 1016.3 hPa | - | - | - | - |
| 1777413903 | 16.11° C | 55% | 1016.2 hPa | - | - | - | - |
| 1777412699 | 16.11° C | 54% | 1016.1 hPa | - | - | - | - |
| 1777411496 | 16.67° C | 53% | 1016 hPa | - | - | - | - |
| 1777410292 | 16.67° C | 53% | 1015.9 hPa | - | - | - | - |
| 1777409089 | 17.22° C | 53% | 1015.8 hPa | - | - | - | - |
| 1777406682 | 17.78° C | 51% | 1015.7 hPa | - | - | - | - |
| 1777405478 | 18.33° C | 50% | 1015.6 hPa | - | - | - | - |
| 1777401866 | 20.56° C | 47% | 1015.1 hPa | - | - | - | - |
| 1777400662 | 21.11° C | 45% | 1014.8 hPa | - | - | - | - |
| 1777399458 | 21.67° C | 44% | 1014.7 hPa | - | - | - | - |
| 1777398254 | 22.22° C | 43% | 1014.6 hPa | - | - | - | - |
| 1777397050 | 22.78° C | 42% | 1014.4 hPa | - | - | - | - |
| 1777395846 | 23.89° C | 42% | 1014.4 hPa | - | - | - | - |
| 1777394642 | 24.44° C | 41% | 1014.3 hPa | - | - | - | - |
| 1777393438 | 25° C | 37% | 1014.2 hPa | - | - | - | - |
| 1777392234 | 25.56° C | 36% | 1014.3 hPa | - | - | - | - |
* Rain since midnight (hover to see other rain measurements)
** Current wind speed in m/s (hover to see current wind gust speed)